Time;durP1;ratioP1;P1;durP2;ratioP2;P2;SDS_P1;SDS_P2;PMS_P1;PMS_P2;Temp;Humidity;BMP_temperature;BMP_pressure;BME280_temperature;BME280_humidity;BME280_pressure;Samples;Min_cycle;Max_cycle;Signal;HPM_P1;HPM_P2
2024/02/10 00:01:01;;;;;;;2.75;1.35;;;12.10;86.50;;;;;;5029838;28;20071;-61
2024/02/10 00:03:28;;;;;;;0.95;0.82;;;12.10;86.50;;;;;;5030067;28;20025;-62
2024/02/10 00:05:54;;;;;;;2.83;1.33;;;12.10;86.50;;;;;;5030518;28;20025;-62
2024/02/10 00:08:22;;;;;;;1.80;1.20;;;12.10;86.50;;;;;;5021742;28;20038;-62
2024/02/10 00:10:48;;;;;;;2.00;1.00;;;12.10;86.60;;;;;;5038279;28;20116;-61
2024/02/10 00:13:15;;;;;;;1.33;0.90;;;12.10;86.60;;;;;;5026279;28;20064;-61
2024/02/10 00:15:42;;;;;;;1.50;1.20;;;12.10;86.60;;;;;;5033440;28;20429;-61
2024/02/10 00:18:08;;;;;;;1.02;0.93;;;12.20;86.70;;;;;;5037560;28;20036;-61
2024/02/10 00:20:36;;;;;;;4.88;1.02;;;12.20;86.70;;;;;;5033639;28;20048;-62
2024/02/10 00:23:04;;;;;;;1.58;1.23;;;12.20;86.60;;;;;;5035629;28;20396;-61
2024/02/10 00:25:31;;;;;;;2.13;1.10;;;12.20;86.50;;;;;;5029721;28;20061;-61
2024/02/10 00:28:00;;;;;;;1.75;1.02;;;12.30;86.60;;;;;;5030321;28;20030;-61
2024/02/10 00:30:29;;;;;;;2.25;1.30;;;12.30;86.60;;;;;;5029664;28;20549;-62
2024/02/10 00:32:56;;;;;;;1.17;0.70;;;12.30;86.60;;;;;;5030724;28;20041;-62
2024/02/10 00:35:22;;;;;;;1.65;0.90;;;12.30;86.60;;;;;;5031409;28;20033;-61
2024/02/10 00:37:49;;;;;;;0.70;0.70;;;12.30;86.60;;;;;;5033828;28;20032;-62
2024/02/10 00:40:15;;;;;;;0.85;0.77;;;12.30;86.50;;;;;;5028924;28;20082;-61
2024/02/10 00:42:42;;;;;;;3.25;0.82;;;12.30;86.50;;;;;;5028443;28;20041;-61
2024/02/10 00:45:09;;;;;;;2.10;1.33;;;12.30;86.50;;;;;;5028936;28;20052;-62
2024/02/10 00:47:35;;;;;;;0.73;0.68;;;12.30;86.60;;;;;;5027630;28;20443;-62
2024/02/10 00:50:02;;;;;;;1.00;0.77;;;12.30;86.50;;;;;;5026829;28;20026;-62
2024/02/10 00:52:28;;;;;;;3.05;1.23;;;12.30;86.60;;;;;;5032004;28;20032;-61
2024/02/10 00:54:55;;;;;;;0.63;0.60;;;12.20;86.60;;;;;;5027862;28;20523;-61
2024/02/10 00:57:22;;;;;;;1.20;0.90;;;12.20;86.70;;;;;;5030051;28;20496;-66
2024/02/10 00:59:48;;;;;;;1.50;0.80;;;12.20;86.60;;;;;;5031282;28;20148;-66
2024/02/10 01:02:17;;;;;;;1.42;1.10;;;12.20;86.60;;;;;;5036208;28;20048;-66
2024/02/10 01:04:47;;;;;;;2.65;1.40;;;12.20;86.60;;;;;;5023261;28;20038;-66
2024/02/10 01:07:17;;;;;;;0.95;0.80;;;12.20;86.70;;;;;;5028532;28;20026;-66
2024/02/10 01:09:46;;;;;;;5.68;0.93;;;12.20;86.70;;;;;;5029665;28;20052;-66
2024/02/10 01:12:13;;;;;;;4.00;0.70;;;12.20;86.70;;;;;;5027854;28;20025;-66
2024/02/10 01:14:40;;;;;;;0.95;0.60;;;12.20;86.70;;;;;;5031834;28;20049;-61
2024/02/10 01:17:11;;;;;;;1.75;1.08;;;12.20;86.70;;;;;;5032271;28;20459;-61
2024/02/10 01:19:46;;;;;;;1.55;0.70;;;12.20;86.70;;;;;;5032959;28;21077;-61
2024/02/10 01:22:17;;;;;;;1.17;0.90;;;12.20;86.70;;;;;;5026940;28;20241;-61
2024/02/10 01:24:46;;;;;;;1.10;0.85;;;12.30;86.80;;;;;;5034182;28;20109;-62
2024/02/10 01:27:16;;;;;;;1.02;0.70;;;12.30;86.70;;;;;;5028066;28;20038;-61
2024/02/10 01:29:47;;;;;;;0.90;0.60;;;12.30;86.60;;;;;;5030747;28;20049;-61
2024/02/10 01:32:15;;;;;;;0.82;0.70;;;12.30;86.70;;;;;;5031721;28;20091;-61
2024/02/10 01:34:41;;;;;;;1.20;0.80;;;12.30;86.70;;;;;;5028879;28;20500;-61
2024/02/10 01:37:08;;;;;;;2.58;0.63;;;12.30;86.70;;;;;;5028785;28;20480;-61
2024/02/10 01:39:34;;;;;;;1.80;0.90;;;12.30;86.70;;;;;;5028192;28;20443;-62
2024/02/10 01:42:00;;;;;;;1.50;0.90;;;12.30;86.80;;;;;;5023173;28;20695;-61
2024/02/10 01:44:26;;;;;;;0.93;0.90;;;12.20;86.80;;;;;;5027694;28;20029;-62
2024/02/10 01:46:52;;;;;;;1.90;1.02;;;12.20;86.90;;;;;;5033818;28;20033;-61
2024/02/10 01:49:18;;;;;;;1.27;0.93;;;12.20;86.90;;;;;;5024050;28;20087;-61
2024/02/10 01:51:45;;;;;;;1.23;0.52;;;12.20;86.90;;;;;;5027032;28;20037;-62
2024/02/10 01:54:11;;;;;;;0.70;0.70;;;12.20;86.80;;;;;;5028906;28;20033;-62
2024/02/10 01:56:39;;;;;;;0.90;0.80;;;12.20;86.90;;;;;;5029814;28;20265;-61
2024/02/10 01:59:09;;;;;;;1.15;0.98;;;12.20;86.90;;;;;;5034236;28;20116;-61
2024/02/10 02:01:36;;;;;;;1.40;0.90;;;12.20;86.90;;;;;;5023231;28;20060;-61
2024/02/10 02:04:05;;;;;;;1.55;0.90;;;12.20;86.80;;;;;;5024218;28;20504;-61
2024/02/10 02:06:33;;;;;;;0.90;0.85;;;12.20;86.80;;;;;;5031108;28;20025;-62
2024/02/10 02:09:03;;;;;;;2.15;0.63;;;12.20;86.90;;;;;;5030865;28;20065;-62
2024/02/10 02:11:29;;;;;;;0.90;0.55;;;12.10;86.80;;;;;;5025123;28;20029;-62
2024/02/10 02:13:58;;;;;;;1.23;0.98;;;12.10;86.80;;;;;;5022818;28;20069;-61
2024/02/10 02:16:26;;;;;;;0.77;0.57;;;12.10;86.90;;;;;;5028939;28;20029;-61
2024/02/10 02:18:55;;;;;;;1.40;0.90;;;12.10;87.00;;;;;;5027505;28;20107;-62
2024/02/10 02:21:22;;;;;;;1.27;0.88;;;12.10;87.60;;;;;;5031914;28;20088;-61
2024/02/10 02:23:49;;;;;;;1.60;0.63;;;12.00;87.00;;;;;;5030711;28;20034;-61
2024/02/10 02:26:15;;;;;;;1.38;1.15;;;12.10;87.10;;;;;;5028565;28;20420;-62
2024/02/10 02:28:42;;;;;;;0.45;0.32;;;12.00;86.90;;;;;;5029486;28;20090;-61
2024/02/10 02:31:08;;;;;;;1.17;0.80;;;12.00;86.90;;;;;;5027657;28;20034;-61
2024/02/10 02:33:36;;;;;;;0.88;0.73;;;12.00;87.00;;;;;;5025885;28;20526;-61
2024/02/10 02:36:02;;;;;;;0.77;0.77;;;12.00;87.00;;;;;;5028239;28;20032;-61
2024/02/10 02:38:28;;;;;;;1.27;0.93;;;12.00;87.00;;;;;;5029025;28;20021;-61
2024/02/10 02:40:53;;;;;;;1.20;0.55;;;12.00;87.00;;;;;;5029099;28;20060;-62
2024/02/10 02:43:19;;;;;;;1.98;0.63;;;11.90;87.00;;;;;;5025830;28;20029;-61
2024/02/10 02:45:45;;;;;;;1.70;1.08;;;11.90;87.00;;;;;;5024417;28;20103;-61
2024/02/10 02:48:11;;;;;;;1.55;0.80;;;11.90;87.10;;;;;;5026601;28;20056;-61
2024/02/10 02:50:44;;;;;;;1.13;1.02;;;11.80;87.00;;;;;;5027700;28;20076;-61
2024/02/10 02:53:10;;;;;;;2.08;1.10;;;11.80;87.10;;;;;;5026590;28;20408;-61
2024/02/10 02:55:36;;;;;;;0.63;0.50;;;11.80;87.20;;;;;;5016319;28;20034;-61
2024/02/10 02:58:09;;;;;;;0.88;0.75;;;11.80;87.20;;;;;;5027250;28;20472;-61
2024/02/10 03:00:35;;;;;;;;;;;11.80;87.10;;;;;;5031835;28;20021;-61
2024/02/10 03:03:03;;;;;;;1.10;0.60;;;11.80;87.20;;;;;;5033762;28;19913;-61
2024/02/10 03:05:32;;;;;;;1.45;0.85;;;11.70;87.10;;;;;;5028796;28;20060;-61
2024/02/10 03:07:58;;;;;;;1.40;0.70;;;11.80;87.10;;;;;;5034897;28;20025;-62
2024/02/10 03:10:25;;;;;;;1.95;1.17;;;11.80;87.10;;;;;;5031066;28;20048;-62
2024/02/10 03:12:51;;;;;;;0.52;0.43;;;11.80;87.10;;;;;;5031792;28;20155;-61
2024/02/10 03:15:17;;;;;;;0.95;0.40;;;11.80;87.20;;;;;;5030920;28;20080;-62
2024/02/10 03:17:46;;;;;;;2.03;1.00;;;11.80;87.20;;;;;;5042468;28;20108;-61
2024/02/10 03:20:13;;;;;;;1.05;0.60;;;11.80;87.10;;;;;;5030922;28;20045;-66
2024/02/10 03:22:39;;;;;;;1.20;0.98;;;11.90;87.20;;;;;;5030580;28;20017;-66
2024/02/10 03:25:06;;;;;;;1.48;0.65;;;11.90;87.20;;;;;;5029655;28;20025;-66
2024/02/10 03:27:32;;;;;;;0.60;0.60;;;11.90;87.20;;;;;;5017020;28;20026;-66
2024/02/10 03:30:00;;;;;;;0.82;0.52;;;11.90;87.20;;;;;;5034846;28;20423;-66
2024/02/10 03:32:28;;;;;;;1.10;0.77;;;11.90;87.10;;;;;;5033192;28;20503;-66
2024/02/10 03:34:54;;;;;;;0.75;0.50;;;11.90;87.10;;;;;;5030467;28;20038;-66
2024/02/10 03:37:20;;;;;;;1.25;0.85;;;11.90;87.10;;;;;;5026001;28;20095;-66
2024/02/10 03:39:46;;;;;;;1.55;0.75;;;11.90;87.20;;;;;;5029598;28;20026;-61
2024/02/10 03:42:11;;;;;;;1.50;0.68;;;11.90;87.20;;;;;;5023401;28;20061;-61
2024/02/10 03:44:37;;;;;;;0.57;0.57;;;11.90;87.20;;;;;;5024889;28;20045;-62
2024/02/10 03:47:09;;;;;;;0.50;0.50;;;11.90;87.20;;;;;;5028067;28;20030;-61
2024/02/10 03:49:35;;;;;;;0.90;0.70;;;11.90;87.30;;;;;;5021381;28;20032;-65
2024/02/10 03:52:01;;;;;;;0.68;0.68;;;11.80;87.30;;;;;;5028489;28;20472;-66
2024/02/10 03:54:27;;;;;;;0.73;0.60;;;11.90;87.40;;;;;;5027960;28;20568;-66
2024/02/10 03:56:53;;;;;;;0.85;0.85;;;11.90;87.40;;;;;;5029678;28;20112;-66
2024/02/10 03:59:19;;;;;;;1.65;0.77;;;11.90;87.40;;;;;;5029353;28;20108;-66
2024/02/10 04:01:46;;;;;;;1.13;0.63;;;11.80;87.30;;;;;;5030483;28;20021;-66
2024/02/10 04:04:13;;;;;;;1.00;0.65;;;11.80;87.40;;;;;;5033780;28;20520;-66
2024/02/10 04:06:39;;;;;;;0.95;0.60;;;11.80;87.30;;;;;;5035366;28;20045;-66
2024/02/10 04:09:07;;;;;;;1.00;0.88;;;11.80;87.30;;;;;;5037428;28;20037;-66
2024/02/10 04:11:34;;;;;;;0.50;0.50;;;11.80;87.40;;;;;;5027741;28;20054;-66
2024/02/10 04:14:00;;;;;;;0.45;0.45;;;11.80;87.40;;;;;;5029251;28;20038;-66
2024/02/10 04:16:26;;;;;;;1.05;0.75;;;11.70;87.40;;;;;;5030365;28;20022;-66
2024/02/10 04:18:59;;;;;;;2.45;0.95;;;11.70;87.50;;;;;;5028044;28;20038;-66
2024/02/10 04:21:26;;;;;;;0.82;0.60;;;11.80;87.60;;;;;;5026707;28;20084;-66
2024/02/10 04:23:51;;;;;;;1.50;1.02;;;11.80;87.60;;;;;;5021909;28;20102;-66
2024/02/10 04:26:18;;;;;;;0.82;0.70;;;11.80;87.70;;;;;;5028832;28;20029;-66
2024/02/10 04:28:44;;;;;;;0.88;0.60;;;11.80;87.60;;;;;;5034770;28;20083;-66
2024/02/10 04:31:13;;;;;;;1.77;1.00;;;11.80;87.50;;;;;;5035271;28;20057;-66
2024/02/10 04:33:42;;;;;;;0.63;0.55;;;11.90;87.50;;;;;;5031000;28;20484;-66
2024/02/10 04:36:11;;;;;;;0.50;0.50;;;11.90;87.60;;;;;;5037123;28;20395;-66
2024/02/10 04:38:37;;;;;;;1.60;1.00;;;11.90;87.60;;;;;;5035195;28;20041;-66
2024/02/10 04:41:04;;;;;;;0.85;0.57;;;11.90;87.50;;;;;;5033844;28;20509;-66
2024/02/10 04:43:30;;;;;;;0.75;0.75;;;11.90;87.40;;;;;;5033509;28;20064;-66
2024/02/10 04:45:55;;;;;;;0.90;0.60;;;11.80;87.50;;;;;;5028444;28;20092;-66
2024/02/10 04:48:21;;;;;;;1.02;0.80;;;11.80;87.50;;;;;;5029720;28;20037;-66
2024/02/10 04:50:47;;;;;;;1.00;0.50;;;11.80;87.60;;;;;;5030057;28;20033;-66
2024/02/10 04:53:16;;;;;;;0.75;0.60;;;11.80;87.50;;;;;;5028802;28;20025;-66
2024/02/10 04:55:42;;;;;;;0.93;0.77;;;11.80;87.50;;;;;;5018410;28;20025;-66
2024/02/10 04:58:08;;;;;;;1.70;0.90;;;11.70;87.50;;;;;;5032380;28;20387;-66
2024/02/10 05:00:33;;;;;;;0.90;0.82;;;11.70;87.50;;;;;;5032183;28;20071;-66
2024/02/10 05:03:02;;;;;;;1.95;1.02;;;11.60;87.50;;;;;;5027416;28;20029;-66
2024/02/10 05:05:28;;;;;;;0.85;0.55;;;11.50;87.60;;;;;;5027391;28;20025;-66
2024/02/10 05:07:56;;;;;;;1.00;0.88;;;11.50;87.60;;;;;;5035202;28;20033;-66
2024/02/10 05:10:23;;;;;;;0.90;0.90;;;11.50;87.70;;;;;;5035524;28;20128;-66
2024/02/10 05:12:50;;;;;;;1.20;0.80;;;11.50;87.70;;;;;;5026129;28;20572;-66
2024/02/10 05:15:21;;;;;;;1.50;0.90;;;11.50;87.70;;;;;;5030861;28;20025;-66
2024/02/10 05:17:50;;;;;;;2.35;0.95;;;11.50;87.70;;;;;;5028926;28;20724;-66
2024/02/10 05:20:21;;;;;;;0.47;0.40;;;11.50;87.60;;;;;;5029576;28;20584;-66
2024/02/10 05:22:52;;;;;;;1.30;0.93;;;11.50;87.60;;;;;;5028233;28;20108;-66
2024/02/10 05:25:20;;;;;;;0.80;0.60;;;11.50;87.60;;;;;;5028957;28;20388;-66
2024/02/10 05:27:50;;;;;;;1.52;0.82;;;11.50;87.60;;;;;;5032998;28;20033;-66
2024/02/10 05:30:21;;;;;;;1.67;0.90;;;11.50;87.60;;;;;;5026771;28;20085;-66
2024/02/10 05:32:49;;;;;;;0.73;0.73;;;11.50;87.60;;;;;;5032436;28;20033;-66
2024/02/10 05:35:18;;;;;;;0.88;0.70;;;11.50;87.60;;;;;;5038125;28;20028;-66
2024/02/10 05:37:53;;;;;;;1.10;0.90;;;11.50;87.70;;;;;;5019292;28;20026;-66
2024/02/10 05:40:23;;;;;;;1.70;0.90;;;11.50;87.60;;;;;;5030450;28;20021;-66
2024/02/10 05:42:50;;;;;;;1.98;1.00;;;11.50;87.70;;;;;;5025571;28;20108;-66
2024/02/10 05:45:18;;;;;;;1.15;0.80;;;11.50;87.70;;;;;;5028391;28;20037;-66
2024/02/10 05:47:50;;;;;;;1.08;0.80;;;11.50;87.60;;;;;;5025239;28;20458;-66
2024/02/10 05:50:18;;;;;;;1.63;1.10;;;11.50;87.60;;;;;;5032559;28;20030;-66
2024/02/10 05:52:45;;;;;;;2.47;1.27;;;11.50;87.60;;;;;;5027544;28;21194;-66
2024/02/10 05:55:25;;;;;;;1.25;0.77;;;11.50;87.60;;;;;;5026418;28;20040;-66
2024/02/10 05:57:55;;;;;;;0.85;0.60;;;11.50;87.60;;;;;;5026366;28;20029;-66
2024/02/10 06:00:22;;;;;;;0.73;0.50;;;11.50;87.60;;;;;;5022023;28;20033;-66
2024/02/10 06:02:48;;;;;;;1.20;0.93;;;11.50;87.70;;;;;;5025992;28;20036;-66
2024/02/10 06:05:14;;;;;;;1.52;1.17;;;11.50;87.60;;;;;;5032046;28;20397;-66
2024/02/10 06:07:41;;;;;;;2.00;1.25;;;11.50;88.10;;;;;;5027756;28;20366;-66
2024/02/10 06:10:15;;;;;;;1.63;1.20;;;11.50;87.60;;;;;;5061660;28;20052;-66
2024/02/10 06:12:45;;;;;;;1.42;0.88;;;11.50;87.50;;;;;;5024292;28;20030;-66
2024/02/10 06:15:11;;;;;;;1.20;0.90;;;11.50;87.60;;;;;;5022073;28;20488;-66
2024/02/10 06:17:38;;;;;;;1.20;1.00;;;11.50;87.60;;;;;;5026513;28;20091;-67
2024/02/10 06:20:06;;;;;;;1.02;0.82;;;11.50;87.60;;;;;;5027850;28;20512;-66
2024/02/10 06:22:34;;;;;;;1.23;0.80;;;11.50;87.60;;;;;;5023784;28;20040;-66
2024/02/10 06:25:00;;;;;;;0.93;0.60;;;11.50;87.90;;;;;;5032884;28;20112;-67
2024/02/10 06:27:26;;;;;;;1.63;1.00;;;11.50;87.60;;;;;;5025933;28;20021;-66
2024/02/10 06:29:54;;;;;;;0.98;0.93;;;11.50;87.60;;;;;;5034651;28;20032;-62
2024/02/10 06:32:21;;;;;;;2.42;1.40;;;11.50;87.60;;;;;;5027149;28;20022;-62
2024/02/10 06:34:51;;;;;;;1.35;0.80;;;11.50;87.60;;;;;;5028911;28;20037;-62
2024/02/10 06:37:19;;;;;;;2.42;1.23;;;11.50;87.60;;;;;;5031687;28;20108;-62
2024/02/10 06:39:44;;;;;;;1.60;1.25;;;11.50;87.60;;;;;;5033315;28;20480;-62
2024/02/10 06:42:11;;;;;;;1.27;0.70;;;11.50;87.60;;;;;;5029103;28;20098;-62
2024/02/10 06:44:39;;;;;;;0.80;0.80;;;11.40;87.60;;;;;;5030516;28;20103;-62
2024/02/10 06:47:07;;;;;;;0.70;0.60;;;11.50;87.70;;;;;;5031891;28;20392;-62
2024/02/10 06:49:34;;;;;;;0.77;0.70;;;11.50;87.70;;;;;;5028123;28;20029;-62
2024/02/10 06:52:02;;;;;;;1.08;0.70;;;11.50;87.70;;;;;;5029617;28;20040;-62
2024/02/10 06:54:30;;;;;;;2.75;1.17;;;11.50;87.70;;;;;;5031881;28;20044;-63
2024/02/10 06:57:02;;;;;;;1.50;1.10;;;11.50;87.60;;;;;;5030005;28;20032;-62
2024/02/10 06:59:28;;;;;;;1.27;0.95;;;11.50;87.50;;;;;;5029104;28;20428;-62
2024/02/10 07:01:57;;;;;;;1.02;0.90;;;11.50;87.50;;;;;;5029810;28;20238;-62
2024/02/10 07:04:23;;;;;;;1.30;0.85;;;11.50;87.50;;;;;;5032349;28;20042;-62
2024/02/10 07:06:53;;;;;;;1.00;0.80;;;11.50;87.50;;;;;;5032170;28;20028;-62
2024/02/10 07:09:21;;;;;;;0.93;0.80;;;11.50;87.60;;;;;;5030578;28;20523;-62
2024/02/10 07:11:50;;;;;;;2.00;1.15;;;11.50;87.60;;;;;;5034554;28;20059;-62
2024/02/10 07:14:17;;;;;;;0.95;0.82;;;11.50;87.70;;;;;;5035716;28;20472;-62
2024/02/10 07:16:43;;;;;;;1.02;0.80;;;11.50;87.60;;;;;;5032518;28;20033;-62
2024/02/10 07:19:10;;;;;;;1.27;1.08;;;11.50;87.60;;;;;;5029069;28;20045;-62
2024/02/10 07:21:36;;;;;;;1.55;0.80;;;11.50;87.60;;;;;;5030924;28;20028;-62
2024/02/10 07:24:05;;;;;;;1.40;0.95;;;11.50;87.50;;;;;;5023779;28;20029;-62
2024/02/10 07:26:35;;;;;;;1.13;0.80;;;11.50;87.50;;;;;;5031525;28;20065;-62
2024/02/10 07:29:02;;;;;;;0.65;0.65;;;11.50;87.60;;;;;;5032152;28;20036;-62
2024/02/10 07:31:28;;;;;;;1.58;0.98;;;11.50;87.50;;;;;;5029859;28;20024;-62
2024/02/10 07:33:58;;;;;;;1.25;1.05;;;11.50;87.50;;;;;;5027758;28;20047;-63
2024/02/10 07:36:32;;;;;;;2.00;0.88;;;11.50;87.50;;;;;;5027045;28;20076;-66
2024/02/10 07:38:59;;;;;;;1.60;0.95;;;11.50;87.50;;;;;;5041912;28;20021;-66
2024/02/10 07:41:25;;;;;;;2.58;1.30;;;11.50;87.40;;;;;;5030710;28;20060;-66
2024/02/10 07:43:50;;;;;;;1.55;1.30;;;11.50;87.40;;;;;;5012252;28;20037;-62
2024/02/10 07:46:16;;;;;;;1.85;1.02;;;11.50;87.40;;;;;;5028343;28;20026;-62
2024/02/10 07:48:45;;;;;;;0.90;0.80;;;11.50;87.40;;;;;;5029704;28;20431;-66
2024/02/10 07:51:12;;;;;;;0.63;0.63;;;11.60;87.50;;;;;;5033056;28;20095;-66
2024/02/10 07:53:38;;;;;;;1.95;1.27;;;11.60;87.30;;;;;;5030990;28;20448;-67
2024/02/10 07:56:04;;;;;;;2.00;1.13;;;11.60;87.30;;;;;;5024953;28;20072;-67
2024/02/10 07:58:29;;;;;;;2.92;0.90;;;11.70;87.30;;;;;;5031759;28;20064;-67
2024/02/10 08:00:55;;;;;;;2.10;1.00;;;11.70;87.30;;;;;;5027037;28;20040;-67
2024/02/10 08:03:23;;;;;;;2.22;1.05;;;11.70;87.30;;;;;;5030625;28;20091;-67
2024/02/10 08:05:51;;;;;;;5.57;1.08;;;11.70;87.20;;;;;;5036882;28;20033;-66
2024/02/10 08:08:21;;;;;;;1.50;1.40;;;11.70;87.20;;;;;;5025431;28;20049;-66
2024/02/10 08:10:47;;;;;;;1.42;1.17;;;11.70;87.20;;;;;;5021952;28;20037;-67
2024/02/10 08:13:12;;;;;;;1.90;1.00;;;11.70;87.30;;;;;;5028616;28;20355;-67
2024/02/10 08:15:39;;;;;;;1.45;0.95;;;11.70;87.30;;;;;;5033935;28;20065;-67
2024/02/10 08:18:08;;;;;;;1.67;1.10;;;11.80;87.40;;;;;;5030900;28;20067;-66
2024/02/10 08:20:34;;;;;;;1.50;1.10;;;11.80;87.40;;;;;;5031573;28;20033;-67
2024/02/10 08:23:00;;;;;;;1.10;1.00;;;11.80;87.40;;;;;;5033539;28;20078;-66
2024/02/10 08:25:28;;;;;;;1.65;1.10;;;11.80;87.40;;;;;;5029697;28;20041;-67
2024/02/10 08:27:56;;;;;;;1.40;1.17;;;11.90;87.40;;;;;;5026713;28;20025;-67
2024/02/10 08:30:24;;;;;;;1.13;1.02;;;11.90;87.30;;;;;;5028593;28;20036;-66
2024/02/10 08:32:50;;;;;;;0.98;0.90;;;11.90;87.30;;;;;;5027687;28;20360;-67
2024/02/10 08:35:16;;;;;;;2.15;1.33;;;12.00;87.30;;;;;;5053715;28;20558;-67
2024/02/10 08:37:42;;;;;;;3.03;1.52;;;12.00;87.20;;;;;;5026600;28;20030;-66
2024/02/10 08:40:12;;;;;;;1.05;0.95;;;12.00;87.30;;;;;;5020910;28;20389;-67
2024/02/10 08:42:38;;;;;;;1.83;1.25;;;12.10;87.30;;;;;;5035755;28;20038;-68
2024/02/10 08:45:05;;;;;;;1.95;1.52;;;12.10;87.30;;;;;;5027827;28;20036;-68
2024/02/10 08:47:31;;;;;;;2.28;1.30;;;12.20;87.30;;;;;;5029680;28;20061;-68
2024/02/10 08:49:57;;;;;;;1.67;1.13;;;12.20;87.20;;;;;;5030366;28;20525;-69
2024/02/10 08:52:22;;;;;;;1.40;1.30;;;12.20;87.20;;;;;;5029959;28;20141;-69
2024/02/10 08:54:48;;;;;;;2.47;1.30;;;12.30;87.20;;;;;;5029702;28;20060;-69
2024/02/10 08:57:19;;;;;;;2.00;1.13;;;12.30;87.10;;;;;;5031513;28;20029;-68
2024/02/10 08:59:51;;;;;;;2.00;1.40;;;12.30;87.10;;;;;;5034330;28;20645;-68
2024/02/10 09:02:17;;;;;;;2.87;1.67;;;12.40;87.10;;;;;;5029811;28;20024;-68
2024/02/10 09:04:44;;;;;;;1.58;1.10;;;12.40;87.10;;;;;;5032605;28;20264;-68
2024/02/10 09:07:10;;;;;;;1.80;1.45;;;12.50;87.10;;;;;;5028285;28;20404;-68
2024/02/10 09:09:36;;;;;;;1.90;1.50;;;12.50;87.10;;;;;;5030304;28;20033;-68
2024/02/10 09:12:02;;;;;;;5.70;1.65;;;12.50;87.00;;;;;;5028557;28;20026;-69
2024/02/10 09:14:28;;;;;;;7.60;1.48;;;12.50;87.00;;;;;;5018489;28;20099;-68
2024/02/10 09:16:53;;;;;;;1.80;1.13;;;12.50;87.00;;;;;;5028994;28;20457;-68
2024/02/10 09:19:19;;;;;;;1.55;1.38;;;12.50;87.10;;;;;;5024270;28;20511;-61
2024/02/10 09:21:57;;;;;;;1.88;1.45;;;12.50;87.10;;;;;;5032502;28;20039;-62
2024/02/10 09:24:24;;;;;;;3.75;1.35;;;12.60;87.20;;;;;;5032732;28;20052;-62
2024/02/10 09:26:49;;;;;;;1.48;1.20;;;12.60;87.20;;;;;;5031017;28;20081;-63
2024/02/10 09:29:15;;;;;;;2.60;1.00;;;12.70;87.10;;;;;;5028169;28;20385;-61
2024/02/10 09:31:45;;;;;;;2.47;1.58;;;12.70;87.00;;;;;;5029468;28;20080;-62
2024/02/10 09:34:12;;;;;;;2.00;1.38;;;12.80;87.00;;;;;;5026246;28;20145;-62
2024/02/10 09:36:42;;;;;;;1.98;1.10;;;12.80;86.90;;;;;;5027705;28;20099;-63
2024/02/10 09:39:08;;;;;;;2.22;1.45;;;12.80;86.90;;;;;;5030983;28;20029;-61
2024/02/10 09:41:34;;;;;;;2.33;1.20;;;12.90;86.90;;;;;;5023465;28;20029;-62
2024/02/10 09:44:00;;;;;;;2.33;1.63;;;12.90;86.80;;;;;;5027343;28;20079;-63
2024/02/10 09:46:25;;;;;;;3.50;1.80;;;12.90;87.20;;;;;;5026566;28;20466;-63
2024/02/10 09:48:51;;;;;;;1.90;1.17;;;13.00;86.80;;;;;;5020088;28;20061;-63
2024/02/10 09:51:18;;;;;;;1.13;0.95;;;13.00;86.80;;;;;;5022148;28;20148;-63
2024/02/10 09:53:44;;;;;;;2.53;1.60;;;13.10;86.90;;;;;;5024971;28;20505;-63
2024/02/10 09:56:13;;;;;;;1.95;1.25;;;13.10;86.70;;;;;;5028616;28;20079;-63
2024/02/10 09:58:45;;;;;;;2.55;1.42;;;13.20;86.70;;;;;;5025044;28;20022;-63
2024/02/10 10:01:10;;;;;;;1.73;1.13;;;13.20;86.60;;;;;;5023544;28;20552;-63
2024/02/10 10:03:39;;;;;;;1.35;0.90;;;13.30;86.60;;;;;;5029010;28;20116;-63
2024/02/10 10:06:09;;;;;;;2.30;1.50;;;13.30;86.40;;;;;;5029795;28;20033;-63
2024/02/10 10:08:39;;;;;;;2.33;0.93;;;13.40;86.40;;;;;;5020557;28;20033;-63
2024/02/10 10:11:13;;;;;;;5.25;1.17;;;13.40;86.30;;;;;;5031727;28;20108;-63
2024/02/10 10:13:39;;;;;;;2.63;1.52;;;13.50;86.30;;;;;;5031621;28;20342;-63
2024/02/10 10:16:09;;;;;;;1.10;0.98;;;13.50;86.20;;;;;;5013502;28;20040;-63
2024/02/10 10:18:35;;;;;;;1.25;0.80;;;13.60;86.20;;;;;;5018286;28;20128;-63
2024/02/10 10:21:05;;;;;;;2.08;1.42;;;13.70;86.00;;;;;;5010651;28;21244;-63
2024/02/10 10:23:31;;;;;;;1.70;1.25;;;13.80;85.80;;;;;;5025527;28;20121;-63
2024/02/10 10:25:57;;;;;;;2.22;1.35;;;13.90;85.60;;;;;;5018315;28;20030;-62
2024/02/10 10:28:23;;;;;;;3.22;1.38;;;13.90;85.50;;;;;;5020156;28;20044;-63
2024/02/10 10:30:49;;;;;;;1.63;1.10;;;14.00;85.50;;;;;;5014963;28;20021;-63
2024/02/10 10:33:20;;;;;;;2.38;1.00;;;14.00;85.40;;;;;;5018996;28;20030;-62
2024/02/10 10:35:45;;;;;;;1.98;1.10;;;14.10;85.40;;;;;;5025887;28;20033;-63
2024/02/10 10:38:12;;;;;;;1.73;0.95;;;14.10;85.40;;;;;;5028408;28;20029;-63
2024/02/10 10:40:38;;;;;;;0.88;0.85;;;14.10;85.30;;;;;;5030004;28;20404;-62
2024/02/10 10:43:10;;;;;;;2.55;1.48;;;14.10;85.30;;;;;;5029766;28;20035;-62
2024/02/10 10:45:39;;;;;;;2.53;0.93;;;14.20;85.20;;;;;;5035086;28;20100;-63
2024/02/10 10:48:06;;;;;;;1.92;1.13;;;14.10;85.10;;;;;;5027924;28;20476;-63
2024/02/10 10:50:34;;;;;;;1.90;1.15;;;14.10;85.10;;;;;;5028706;28;20034;-63
2024/02/10 10:53:06;;;;;;;1.30;0.93;;;14.10;85.10;;;;;;5031235;28;20092;-67
2024/02/10 10:55:35;;;;;;;2.47;1.33;;;14.20;85.10;;;;;;5017205;28;20032;-67
2024/02/10 10:58:06;;;;;;;2.22;1.35;;;14.20;85.00;;;;;;5024713;28;20018;-67
2024/02/10 11:00:36;;;;;;;2.55;1.10;;;14.20;85.00;;;;;;5030011;28;20105;-67
2024/02/10 11:03:02;;;;;;;1.25;1.13;;;14.20;85.00;;;;;;5028679;28;20329;-67
2024/02/10 11:05:34;;;;;;;0.98;0.93;;;14.30;84.90;;;;;;5021672;28;20041;-67
2024/02/10 11:08:04;;;;;;;0.80;0.80;;;14.30;84.90;;;;;;5016744;28;20033;-67
2024/02/10 11:10:48;;;;;;;2.58;1.65;;;14.30;84.70;;;;;;5040015;28;20159;-67
2024/02/10 11:13:22;;;;;;;1.25;1.02;;;14.30;84.70;;;;;;5024900;28;20405;-67
2024/02/10 11:16:10;;;;;;;1.30;1.00;;;14.30;84.70;;;;;;5036263;28;20025;-67
2024/02/10 11:18:37;;;;;;;0.90;0.82;;;14.40;84.60;;;;;;5023116;28;20056;-67
2024/02/10 11:21:25;;;;;;;2.00;1.10;;;14.40;84.50;;;;;;5030345;28;20041;-67
2024/02/10 11:23:59;;;;;;;1.27;1.00;;;14.40;84.50;;;;;;5025657;28;20497;-67
2024/02/10 11:26:27;;;;;;;4.13;2.10;;;14.40;84.20;;;;;;5021249;28;20040;-67
2024/02/10 11:29:22;;;;;;;1.42;1.10;;;14.40;84.30;;;;;;5025163;28;20096;-67
2024/02/10 11:31:48;;;;;;;1.63;1.33;;;14.50;84.30;;;;;;5011040;28;20042;-67
2024/02/10 11:34:16;;;;;;;1.17;0.70;;;14.50;84.20;;;;;;5026598;28;20083;-67
2024/02/10 11:36:51;;;;;;;1.15;0.68;;;14.50;84.10;;;;;;5031269;28;20108;-67
2024/02/10 11:39:22;;;;;;;2.08;1.27;;;14.60;84.00;;;;;;5023968;28;20034;-67
2024/02/10 11:41:48;;;;;;;1.92;1.48;;;14.70;83.90;;;;;;5028424;28;20013;-67
2024/02/10 11:44:17;;;;;;;1.80;1.10;;;14.70;83.80;;;;;;5032275;28;20029;-67
2024/02/10 11:46:45;;;;;;;6.88;1.15;;;14.70;83.60;;;;;;5034347;28;20087;-68
2024/02/10 11:49:11;;;;;;;1.65;1.27;;;14.70;83.60;;;;;;5030455;28;20408;-67
2024/02/10 11:51:37;;;;;;;3.30;1.73;;;14.70;83.70;;;;;;5033178;28;20521;-67
2024/02/10 11:54:03;;;;;;;1.08;0.98;;;14.70;83.60;;;;;;5032625;28;20028;-67
2024/02/10 11:56:33;;;;;;;1.63;1.48;;;14.70;83.60;;;;;;5033071;28;20480;-67
2024/02/10 11:59:01;;;;;;;1.55;0.93;;;14.70;83.70;;;;;;5029866;28;20056;-67
2024/02/10 12:01:33;;;;;;;1.42;0.98;;;14.80;83.70;;;;;;5028951;28;20025;-67
2024/02/10 12:04:04;;;;;;;1.25;0.95;;;14.80;83.70;;;;;;5032188;28;20077;-67
2024/02/10 12:06:29;;;;;;;1.25;0.98;;;14.80;83.60;;;;;;5040437;28;20068;-68
2024/02/10 12:08:55;;;;;;;8.85;1.38;;;14.90;83.60;;;;;;5028516;28;20610;-67
2024/02/10 12:11:26;;;;;;;1.95;0.80;;;14.90;83.20;;;;;;5031300;28;20029;-67
2024/02/10 12:13:53;;;;;;;1.50;1.10;;;15.10;83.20;;;;;;5034400;28;20037;-67
2024/02/10 12:16:19;;;;;;;0.98;0.80;;;15.20;82.90;;;;;;5029757;28;20025;-67
2024/02/10 12:18:48;;;;;;;0.70;0.68;;;15.50;82.60;;;;;;5033095;28;20037;-62
2024/02/10 12:21:24;;;;;;;1.77;1.00;;;15.70;82.10;;;;;;5026351;28;20037;-67
2024/02/10 12:23:50;;;;;;;1.88;0.85;;;15.90;81.70;;;;;;5027582;28;20057;-67
2024/02/10 12:26:17;;;;;;;3.28;1.02;;;16.00;81.50;;;;;;5029966;28;20398;-67
2024/02/10 12:28:43;;;;;;;2.03;0.75;;;16.10;81.40;;;;;;5027714;28;20022;-67
2024/02/10 12:31:09;;;;;;;0.93;0.80;;;16.30;81.10;;;;;;5031461;28;20071;-67
2024/02/10 12:33:35;;;;;;;1.45;0.70;;;16.40;80.80;;;;;;5026046;28;20030;-67
2024/02/10 12:36:01;;;;;;;0.68;0.68;;;16.50;80.50;;;;;;5030509;28;20029;-67
2024/02/10 12:38:27;;;;;;;1.10;0.80;;;16.50;80.40;;;;;;5027147;28;20034;-67
2024/02/10 12:40:54;;;;;;;1.17;0.93;;;16.50;80.50;;;;;;5029237;28;20582;-67
2024/02/10 12:43:21;;;;;;;1.30;0.98;;;16.50;80.50;;;;;;5057595;28;20544;-63
2024/02/10 12:45:47;;;;;;;1.38;0.88;;;16.50;80.50;;;;;;5021614;28;20480;-63
2024/02/10 12:48:15;;;;;;;1.40;1.02;;;16.70;80.30;;;;;;4995457;28;20372;-62
2024/02/10 12:50:43;;;;;;;0.70;0.70;;;16.90;79.80;;;;;;5027700;28;20033;-63